sensor_id;sensor_type;location;lat;lon;timestamp;pressure;altitude;pressure_sealevel;temperature;humidity
78223;BME280;67497;53.058;21.618;2023-02-08T00:01:29;103057.50;;;22.24;38.12
78223;BME280;67497;53.058;21.618;2023-02-08T00:03:30;103061.19;;;22.25;38.32
78223;BME280;67497;53.058;21.618;2023-02-08T00:05:31;103068.44;;;22.18;38.08
78223;BME280;67497;53.058;21.618;2023-02-08T00:07:31;103062.47;;;22.13;38.02
78223;BME280;67497;53.058;21.618;2023-02-08T00:09:32;103061.19;;;22.07;37.82
78223;BME280;67497;53.058;21.618;2023-02-08T00:11:32;103061.69;;;22.02;37.89
78223;BME280;67497;53.058;21.618;2023-02-08T00:13:33;103068.94;;;21.95;37.84
78223;BME280;67497;53.058;21.618;2023-02-08T00:15:34;103069.59;;;21.89;37.78
78223;BME280;67497;53.058;21.618;2023-02-08T00:17:34;103065.34;;;21.85;37.63
78223;BME280;67497;53.058;21.618;2023-02-08T00:19:35;103064.94;;;21.80;37.50
78223;BME280;67497;53.058;21.618;2023-02-08T00:21:35;103077.31;;;21.78;37.55
78223;BME280;67497;53.058;21.618;2023-02-08T00:23:36;103081.28;;;21.75;37.22
78223;BME280;67497;53.058;21.618;2023-02-08T00:25:36;103079.13;;;21.69;37.25
78223;BME280;67497;53.058;21.618;2023-02-08T00:27:37;103074.50;;;21.60;36.84
78223;BME280;67497;53.058;21.618;2023-02-08T00:29:38;103067.22;;;21.50;37.16
78223;BME280;67497;53.058;21.618;2023-02-08T00:31:38;103077.28;;;21.42;36.86
78223;BME280;67497;53.058;21.618;2023-02-08T00:33:39;103068.09;;;21.32;36.87
78223;BME280;67497;53.058;21.618;2023-02-08T00:35:39;103065.06;;;21.26;36.84
78223;BME280;67497;53.058;21.618;2023-02-08T00:37:41;103073.72;;;21.23;37.03
78223;BME280;67497;53.058;21.618;2023-02-08T00:39:42;103065.13;;;21.16;37.02
78223;BME280;67497;53.058;21.618;2023-02-08T00:41:42;103074.81;;;21.12;37.13
78223;BME280;67497;53.058;21.618;2023-02-08T00:43:43;103074.25;;;21.09;36.95
78223;BME280;67497;53.058;21.618;2023-02-08T00:45:43;103071.00;;;21.04;36.79
78223;BME280;67497;53.058;21.618;2023-02-08T00:47:44;103066.31;;;21.04;36.66
78223;BME280;67497;53.058;21.618;2023-02-08T00:49:44;103069.72;;;20.98;36.58
78223;BME280;67497;53.058;21.618;2023-02-08T00:51:45;103070.19;;;20.94;36.92
78223;BME280;67497;53.058;21.618;2023-02-08T00:53:45;103075.47;;;20.97;36.47
78223;BME280;67497;53.058;21.618;2023-02-08T08:53:29;103316.47;;;19.86;35.88
78223;BME280;67497;53.058;21.618;2023-02-08T08:55:30;103319.09;;;19.87;36.22
78223;BME280;67497;53.058;21.618;2023-02-08T08:57:30;103325.53;;;19.88;35.53
78223;BME280;67497;53.058;21.618;2023-02-08T08:59:31;103316.91;;;19.91;35.57
78223;BME280;67497;53.058;21.618;2023-02-08T09:01:32;103314.13;;;19.91;35.48
78223;BME280;67497;53.058;21.618;2023-02-08T09:03:33;103313.84;;;19.94;35.45
78223;BME280;67497;53.058;21.618;2023-02-08T09:05:34;103305.22;;;19.97;35.44
78223;BME280;67497;53.058;21.618;2023-02-08T09:07:35;103313.28;;;20.00;35.19
78223;BME280;67497;53.058;21.618;2023-02-08T09:09:36;103314.91;;;20.02;35.09
78223;BME280;67497;53.058;21.618;2023-02-08T09:11:36;103317.41;;;20.05;35.30
78223;BME280;67497;53.058;21.618;2023-02-08T09:13:38;103324.31;;;20.11;35.38
78223;BME280;67497;53.058;21.618;2023-02-08T09:15:39;103332.38;;;20.14;35.16
78223;BME280;67497;53.058;21.618;2023-02-08T09:17:40;103334.13;;;20.15;34.93
78223;BME280;67497;53.058;21.618;2023-02-08T09:19:41;103330.31;;;20.16;34.83
78223;BME280;67497;53.058;21.618;2023-02-08T09:21:41;103334.72;;;20.18;34.59
78223;BME280;67497;53.058;21.618;2023-02-08T09:23:42;103336.34;;;20.21;34.79
78223;BME280;67497;53.058;21.618;2023-02-08T09:25:43;103337.06;;;20.23;34.88
78223;BME280;67497;53.058;21.618;2023-02-08T09:27:43;103334.44;;;20.21;35.00
78223;BME280;67497;53.058;21.618;2023-02-08T09:29:44;103325.66;;;20.16;34.98
78223;BME280;67497;53.058;21.618;2023-02-08T09:31:44;103344.44;;;20.24;34.92
78223;BME280;67497;53.058;21.618;2023-02-08T09:33:45;103332.56;;;20.22;34.73
78223;BME280;67497;53.058;21.618;2023-02-08T09:35:46;103336.34;;;20.21;34.77
78223;BME280;67497;53.058;21.618;2023-02-08T09:37:47;103338.88;;;20.24;34.79
78223;BME280;67497;53.058;21.618;2023-02-08T09:39:47;103326.22;;;20.20;34.59
78223;BME280;67497;53.058;21.618;2023-02-08T09:47:08;103323.00;;;20.15;34.01
78223;BME280;67497;53.058;21.618;2023-02-08T09:49:17;103324.03;;;20.14;34.42
78223;BME280;67497;53.058;21.618;2023-02-08T09:53:39;103328.56;;;20.15;34.50
78223;BME280;67497;53.058;21.618;2023-02-08T09:55:47;103334.00;;;20.16;34.46
78223;BME280;67497;53.058;21.618;2023-02-08T09:57:50;103331.06;;;20.18;34.76
78223;BME280;67497;53.058;21.618;2023-02-08T09:59:59;103336.34;;;20.21;34.66
78223;BME280;67497;53.058;21.618;2023-02-08T10:02:13;103333.31;;;20.24;34.97
78223;BME280;67497;53.058;21.618;2023-02-08T10:06:35;103332.75;;;20.30;35.14
78223;BME280;67497;53.058;21.618;2023-02-08T10:08:38;103331.56;;;20.33;34.70
78223;BME280;67497;53.058;21.618;2023-02-08T10:13:27;103320.16;;;20.36;34.87
78223;BME280;67497;53.058;21.618;2023-02-08T10:20:17;103323.94;;;20.44;34.59
78223;BME280;67497;53.058;21.618;2023-02-08T10:27:16;103317.66;;;20.42;33.98
78223;BME280;67497;53.058;21.618;2023-02-08T10:34:03;103319.56;;;20.32;34.44
78223;BME280;67497;53.058;21.618;2023-02-08T10:36:13;103304.72;;;20.22;34.43
78223;BME280;67497;53.058;21.618;2023-02-08T10:40:33;103306.00;;;20.18;34.41
78223;BME280;67497;53.058;21.618;2023-02-08T10:42:35;103301.00;;;20.12;34.38
78223;BME280;67497;53.058;21.618;2023-02-08T10:45:17;103302.16;;;20.09;34.29
78223;BME280;67497;53.058;21.618;2023-02-08T10:47:38;103309.94;;;20.06;34.34
78223;BME280;67497;53.058;21.618;2023-02-08T10:50:02;103305.66;;;20.02;34.39
78223;BME280;67497;53.058;21.618;2023-02-08T10:52:05;103306.38;;;19.94;34.27
78223;BME280;67497;53.058;21.618;2023-02-08T10:54:11;103305.66;;;19.92;34.22
78223;BME280;67497;53.058;21.618;2023-02-08T10:58:35;103302.00;;;19.92;34.12
78223;BME280;67497;53.058;21.618;2023-02-08T11:00:37;103292.47;;;19.94;33.94
78223;BME280;67497;53.058;21.618;2023-02-08T11:02:41;103302.72;;;19.94;33.99
78223;BME280;67497;53.058;21.618;2023-02-08T11:04:57;103290.69;;;19.93;33.78
78223;BME280;67497;53.058;21.618;2023-02-08T11:07:18;103313.28;;;20.00;33.92
78223;BME280;67497;53.058;21.618;2023-02-08T11:09:27;103296.00;;;19.96;34.22
78223;BME280;67497;53.058;21.618;2023-02-08T11:11:38;103306.84;;;20.09;35.17
78223;BME280;67497;53.058;21.618;2023-02-08T11:13:47;103313.75;;;20.14;35.64
78223;BME280;67497;53.058;21.618;2023-02-08T11:15:54;103312.91;;;20.14;36.33
78223;BME280;67497;53.058;21.618;2023-02-08T11:18:01;103316.69;;;20.13;37.08
78223;BME280;67497;53.058;21.618;2023-02-08T11:20:03;103308.34;;;20.13;37.30
78223;BME280;67497;53.058;21.618;2023-02-08T11:22:04;103305.69;;;20.11;37.82
78223;BME280;67497;53.058;21.618;2023-02-08T11:26:17;103311.25;;;20.11;38.18
78223;BME280;67497;53.058;21.618;2023-02-08T11:28:29;103301.28;;;20.09;38.63
78223;BME280;67497;53.058;21.618;2023-02-08T11:30:30;103304.38;;;20.06;38.84
78223;BME280;67497;53.058;21.618;2023-02-08T11:32:32;103304.22;;;20.07;39.20
78223;BME280;67497;53.058;21.618;2023-02-08T11:34:37;103302.59;;;20.05;39.22
78223;BME280;67497;53.058;21.618;2023-02-08T11:36:45;103309.78;;;20.07;39.30
78223;BME280;67497;53.058;21.618;2023-02-08T11:38:46;103299.66;;;20.06;39.56
78223;BME280;67497;53.058;21.618;2023-02-08T11:40:46;103294.25;;;20.05;39.82
78223;BME280;67497;53.058;21.618;2023-02-08T11:42:47;103295.72;;;20.09;39.68
78223;BME280;67497;53.058;21.618;2023-02-08T11:44:49;103289.13;;;20.10;40.02
78223;BME280;67497;53.058;21.618;2023-02-08T11:46:51;103296.47;;;20.11;40.10
78223;BME280;67497;53.058;21.618;2023-02-08T11:48:53;103287.84;;;20.14;40.23
78223;BME280;67497;53.058;21.618;2023-02-08T11:50:59;103291.34;;;20.16;40.44
78223;BME280;67497;53.058;21.618;2023-02-08T11:53:06;103284.00;;;20.15;40.52
78223;BME280;67497;53.058;21.618;2023-02-08T11:57:19;103283.72;;;20.18;40.85
78223;BME280;67497;53.058;21.618;2023-02-08T11:59:21;103278.16;;;20.18;40.81
78223;BME280;67497;53.058;21.618;2023-02-08T12:01:29;103284.47;;;20.20;40.83
78223;BME280;67497;53.058;21.618;2023-02-08T12:03:35;103273.16;;;20.12;40.86
78223;BME280;67497;53.058;21.618;2023-02-08T12:07:51;103274.94;;;20.22;41.12
78223;BME280;67497;53.058;21.618;2023-02-08T12:12:40;103276.59;;;20.25;41.12
78223;BME280;67497;53.058;21.618;2023-02-08T12:24:18;103275.81;;;20.23;42.06
78223;BME280;67497;53.058;21.618;2023-02-08T12:37:52;103257.94;;;20.16;42.52
78223;BME280;67497;53.058;21.618;2023-02-08T12:43:15;103270.09;;;20.15;42.30
78223;BME280;67497;53.058;21.618;2023-02-08T12:48:19;103279.91;;;20.09;42.32
78223;BME280;67497;53.058;21.618;2023-02-08T12:52:37;103276.56;;;20.06;42.42
78223;BME280;67497;53.058;21.618;2023-02-08T12:56:54;103265.81;;;20.01;42.01
78223;BME280;67497;53.058;21.618;2023-02-08T12:58:57;103269.50;;;20.02;41.88
78223;BME280;67497;53.058;21.618;2023-02-08T13:01:08;103274.06;;;20.03;41.88
78223;BME280;67497;53.058;21.618;2023-02-08T13:05:38;103277.56;;;20.05;41.37
78223;BME280;67497;53.058;21.618;2023-02-08T13:07:43;103280.19;;;20.06;41.10
78223;BME280;67497;53.058;21.618;2023-02-08T13:12:13;103282.13;;;20.06;41.11
78223;BME280;67497;53.058;21.618;2023-02-08T13:14:46;103288.41;;;20.08;41.22
78223;BME280;67497;53.058;21.618;2023-02-08T13:16:52;103283.72;;;20.08;41.00
78223;BME280;67497;53.058;21.618;2023-02-08T13:21:36;103273.78;;;20.06;40.83
78223;BME280;67497;53.058;21.618;2023-02-08T13:23:46;103271.72;;;20.08;40.96
78223;BME280;67497;53.058;21.618;2023-02-08T13:25:49;103277.72;;;20.13;40.74
78223;BME280;67497;53.058;21.618;2023-02-08T13:27:52;103274.94;;;20.13;40.83
78223;BME280;67497;53.058;21.618;2023-02-08T13:29:52;103270.66;;;20.09;40.86
78223;BME280;67497;53.058;21.618;2023-02-08T13:31:58;103272.88;;;20.15;40.71
78223;BME280;67497;53.058;21.618;2023-02-08T13:34:18;103264.41;;;20.16;40.68
78223;BME280;67497;53.058;21.618;2023-02-08T13:38:32;103267.31;;;20.15;40.66
78223;BME280;67497;53.058;21.618;2023-02-08T13:40:35;103262.78;;;20.14;40.78
78223;BME280;67497;53.058;21.618;2023-02-08T13:44:39;103250.31;;;20.08;40.63
78223;BME280;67497;53.058;21.618;2023-02-08T13:46:46;103256.91;;;20.07;40.64
78223;BME280;67497;53.058;21.618;2023-02-08T13:48:57;103259.84;;;20.06;40.66
78223;BME280;67497;53.058;21.618;2023-02-08T13:50:59;103254.41;;;20.04;40.23
78223;BME280;67497;53.058;21.618;2023-02-08T13:53:02;103258.19;;;20.03;40.45
78223;BME280;67497;53.058;21.618;2023-02-08T14:02:24;103253.69;;;20.02;40.38
78223;BME280;67497;53.058;21.618;2023-02-08T14:04:29;103253.81;;;20.01;40.50
78223;BME280;67497;53.058;21.618;2023-02-08T14:06:45;103258.34;;;20.02;39.63
78223;BME280;67497;53.058;21.618;2023-02-08T14:08:55;103259.38;;;20.01;39.52
78223;BME280;67497;53.058;21.618;2023-02-08T14:15:29;103240.94;;;20.00;38.63
78223;BME280;67497;53.058;21.618;2023-02-08T14:17:30;103236.81;;;19.94;38.29
78223;BME280;67497;53.058;21.618;2023-02-08T14:19:36;103240.50;;;19.95;38.62
78223;BME280;67497;53.058;21.618;2023-02-08T14:24:25;103256.88;;;19.98;38.75
78223;BME280;67497;53.058;21.618;2023-02-08T14:26:27;103238.44;;;19.97;38.60
78223;BME280;67497;53.058;21.618;2023-02-08T14:28:31;103239.72;;;19.93;38.17
78223;BME280;67497;53.058;21.618;2023-02-08T14:30:37;103242.97;;;19.98;38.09
78223;BME280;67497;53.058;21.618;2023-02-08T14:32:40;103252.06;;;20.00;37.71
78223;BME280;67497;53.058;21.618;2023-02-08T14:34:41;103245.75;;;19.98;37.63
78223;BME280;67497;53.058;21.618;2023-02-08T14:36:43;103248.53;;;19.98;37.47
78223;BME280;67497;53.058;21.618;2023-02-08T14:38:54;103240.16;;;19.98;37.23
78223;BME280;67497;53.058;21.618;2023-02-08T14:41:03;103234.47;;;19.99;37.18
78223;BME280;67497;53.058;21.618;2023-02-08T14:45:29;103242.53;;;20.02;36.97
78223;BME280;67497;53.058;21.618;2023-02-08T14:49:39;103228.03;;;19.99;36.67
78223;BME280;67497;53.058;21.618;2023-02-08T14:51:54;103239.16;;;19.99;36.76
78223;BME280;67497;53.058;21.618;2023-02-08T14:54:05;103243.72;;;20.00;36.87
78223;BME280;67497;53.058;21.618;2023-02-08T14:56:44;103240.94;;;20.00;36.76
78223;BME280;67497;53.058;21.618;2023-02-08T14:58:48;103232.16;;;19.95;36.93
78223;BME280;67497;53.058;21.618;2023-02-08T15:00:50;103232.44;;;19.92;36.84
78223;BME280;67497;53.058;21.618;2023-02-08T15:02:53;103234.16;;;19.93;36.85
78223;BME280;67497;53.058;21.618;2023-02-08T15:04:54;103223.31;;;19.90;36.57
78223;BME280;67497;53.058;21.618;2023-02-08T15:09:22;103242.50;;;19.93;36.29
78223;BME280;67497;53.058;21.618;2023-02-08T15:11:25;103239.88;;;19.91;36.23
78223;BME280;67497;53.058;21.618;2023-02-08T15:13:27;103243.56;;;19.92;36.44
78223;BME280;67497;53.058;21.618;2023-02-08T15:15:34;103228.59;;;19.93;36.05
78223;BME280;67497;53.058;21.618;2023-02-08T15:17:40;103231.25;;;19.94;36.19
78223;BME280;67497;53.058;21.618;2023-02-08T15:19:43;103227.44;;;19.95;35.74
78223;BME280;67497;53.058;21.618;2023-02-08T15:21:45;103218.34;;;19.93;35.84
78223;BME280;67497;53.058;21.618;2023-02-08T15:24:12;103223.47;;;19.98;35.86
78223;BME280;67497;53.058;21.618;2023-02-08T15:26:21;103223.47;;;19.98;35.83
78223;BME280;67497;53.058;21.618;2023-02-08T15:28:24;103212.50;;;19.96;35.39
78223;BME280;67497;53.058;21.618;2023-02-08T15:30:29;103218.66;;;20.00;35.44
78223;BME280;67497;53.058;21.618;2023-02-08T15:32:30;103215.00;;;19.99;35.56
78223;BME280;67497;53.058;21.618;2023-02-08T15:34:31;103212.34;;;19.98;35.52
78223;BME280;67497;53.058;21.618;2023-02-08T15:36:33;103214.72;;;20.02;35.42
78223;BME280;67497;53.058;21.618;2023-02-08T15:38:36;103212.06;;;20.01;35.39
78223;BME280;67497;53.058;21.618;2023-02-08T15:40:37;103212.66;;;20.04;35.27
78223;BME280;67497;53.058;21.618;2023-02-08T15:42:42;103209.88;;;20.04;35.17
78223;BME280;67497;53.058;21.618;2023-02-08T15:44:42;103205.19;;;20.05;35.39
78223;BME280;67497;53.058;21.618;2023-02-08T15:46:44;103205.19;;;20.05;35.32
78223;BME280;67497;53.058;21.618;2023-02-08T15:48:46;103202.53;;;20.03;35.15
78223;BME280;67497;53.058;21.618;2023-02-08T15:50:49;103207.81;;;20.06;35.10
78223;BME280;67497;53.058;21.618;2023-02-08T15:53:09;103211.66;;;20.05;35.01
78223;BME280;67497;53.058;21.618;2023-02-08T15:55:16;103203.72;;;20.01;35.03
78223;BME280;67497;53.058;21.618;2023-02-08T15:59:36;103206.78;;;19.98;35.36
78223;BME280;67497;53.058;21.618;2023-02-08T16:01:38;103203.44;;;19.94;35.26
78223;BME280;67497;53.058;21.618;2023-02-08T16:03:38;103209.88;;;19.95;35.19
78223;BME280;67497;53.058;21.618;2023-02-08T16:05:39;103186.69;;;19.85;35.43
78223;BME280;67497;53.058;21.618;2023-02-08T16:07:43;103208.13;;;19.94;34.90
78223;BME280;67497;53.058;21.618;2023-02-08T16:09:45;103202.84;;;19.91;35.25
78223;BME280;67497;53.058;21.618;2023-02-08T16:11:48;103209.41;;;19.90;34.99
78223;BME280;67497;53.058;21.618;2023-02-08T16:13:51;103217.47;;;19.93;34.80
78223;BME280;67497;53.058;21.618;2023-02-08T16:16:15;103211.91;;;19.93;34.87
78223;BME280;67497;53.058;21.618;2023-02-08T16:18:42;103208.13;;;19.94;34.68
78223;BME280;67497;53.058;21.618;2023-02-08T16:20:55;103197.25;;;19.91;34.85
78223;BME280;67497;53.058;21.618;2023-02-08T16:23:04;103203.44;;;19.94;35.04
78223;BME280;67497;53.058;21.618;2023-02-08T16:25:29;103205.50;;;19.92;35.04
78223;BME280;67497;53.058;21.618;2023-02-08T16:27:32;103193.47;;;19.92;35.12
78223;BME280;67497;53.058;21.618;2023-02-08T16:29:37;103200.03;;;19.91;34.71
78223;BME280;67497;53.058;21.618;2023-02-08T16:31:39;103189.81;;;19.91;34.78
78223;BME280;67497;53.058;21.618;2023-02-08T16:33:40;103201.53;;;19.95;34.67
78223;BME280;67497;53.058;21.618;2023-02-08T16:35:41;103190.53;;;19.93;34.69
78223;BME280;67497;53.058;21.618;2023-02-08T16:37:41;103196.41;;;20.00;34.40
78223;BME280;67497;53.058;21.618;2023-02-08T16:44:15;103196.69;;;20.06;34.21
78223;BME280;67497;53.058;21.618;2023-02-08T16:46:19;103191.00;;;20.08;34.29
78223;BME280;67497;53.058;21.618;2023-02-08T16:48:32;103189.38;;;20.05;34.01
78223;BME280;67497;53.058;21.618;2023-02-08T16:50:37;103177.81;;;20.00;34.64
78223;BME280;67497;53.058;21.618;2023-02-08T16:52:38;103193.78;;;20.08;34.37
78223;BME280;67497;53.058;21.618;2023-02-08T16:54:38;103190.09;;;20.07;34.44
78223;BME280;67497;53.058;21.618;2023-02-08T16:56:40;103190.72;;;20.11;34.75
78223;BME280;67497;53.058;21.618;2023-02-08T16:58:41;103186.16;;;20.10;34.60
78223;BME280;67497;53.058;21.618;2023-02-08T17:00:42;103185.56;;;20.06;34.65
78223;BME280;67497;53.058;21.618;2023-02-08T17:02:42;103193.78;;;20.08;34.95
78223;BME280;67497;53.058;21.618;2023-02-08T17:04:43;103195.84;;;20.06;35.21
78223;BME280;67497;53.058;21.618;2023-02-08T17:06:45;103196.69;;;20.06;35.08
78223;BME280;67497;53.058;21.618;2023-02-08T17:08:45;103197.28;;;20.00;35.34
78223;BME280;67497;53.058;21.618;2023-02-08T17:10:47;103199.91;;;20.02;35.23
78223;BME280;67497;53.058;21.618;2023-02-08T17:12:52;103197.28;;;20.00;35.36
78223;BME280;67497;53.058;21.618;2023-02-08T17:14:52;103197.72;;;19.96;35.34
78223;BME280;67497;53.058;21.618;2023-02-08T17:16:53;103202.25;;;19.97;35.28
78223;BME280;67497;53.058;21.618;2023-02-08T17:18:54;103203.16;;;19.97;35.62
78223;BME280;67497;53.058;21.618;2023-02-08T17:20:55;103196.97;;;19.94;35.64
78223;BME280;67497;53.058;21.618;2023-02-08T17:23:00;103200.50;;;19.96;35.14
78223;BME280;67497;53.058;21.618;2023-02-08T17:25:01;103195.97;;;19.95;35.03
78223;BME280;67497;53.058;21.618;2023-02-08T17:27:02;103187.31;;;19.98;34.70
78223;BME280;67497;53.058;21.618;2023-02-08T17:29:04;103189.06;;;19.99;35.10
78223;BME280;67497;53.058;21.618;2023-02-08T17:31:04;103189.50;;;20.04;35.33
78223;BME280;67497;53.058;21.618;2023-02-08T17:33:05;103203.75;;;20.10;35.28
78223;BME280;67497;53.058;21.618;2023-02-08T17:35:07;103197.00;;;20.13;35.03
78223;BME280;67497;53.058;21.618;2023-02-08T17:37:07;103196.25;;;20.20;35.07
78223;BME280;67497;53.058;21.618;2023-02-08T17:39:09;103197.63;;;20.26;34.76
78223;BME280;67497;53.058;21.618;2023-02-08T17:41:15;103188.81;;;20.31;35.54
78223;BME280;67497;53.058;21.618;2023-02-08T17:43:16;103177.84;;;20.29;35.35
78223;BME280;67497;53.058;21.618;2023-02-08T17:45:18;103192.34;;;20.42;35.28
78223;BME280;67497;53.058;21.618;2023-02-08T17:47:19;103180.19;;;20.43;35.71
78223;BME280;67497;53.058;21.618;2023-02-08T17:49:19;103182.34;;;20.49;35.50
78223;BME280;67497;53.058;21.618;2023-02-08T17:51:22;103177.06;;;20.56;34.74
78223;BME280;67497;53.058;21.618;2023-02-08T17:53:23;103171.03;;;20.60;34.40
78223;BME280;67497;53.058;21.618;2023-02-08T17:55:23;103180.88;;;20.64;34.62
78223;BME280;67497;53.058;21.618;2023-02-08T17:57:24;103163.28;;;20.64;34.96
78223;BME280;67497;53.058;21.618;2023-02-08T17:59:24;103175.44;;;20.72;34.81
78223;BME280;67497;53.058;21.618;2023-02-08T18:01:26;103173.22;;;20.76;34.91
78223;BME280;67497;53.058;21.618;2023-02-08T18:03:27;103160.03;;;20.78;35.14
78223;BME280;67497;53.058;21.618;2023-02-08T18:05:28;103160.59;;;20.81;35.31
78223;BME280;67497;53.058;21.618;2023-02-08T18:07:28;103151.19;;;20.82;35.52
78223;BME280;67497;53.058;21.618;2023-02-08T18:09:30;103155.47;;;20.86;34.88
78223;BME280;67497;53.058;21.618;2023-02-08T18:11:31;103156.88;;;20.91;35.06
78223;BME280;67497;53.058;21.618;2023-02-08T18:13:34;103151.72;;;20.96;35.22
78223;BME280;67497;53.058;21.618;2023-02-08T18:15:35;103148.78;;;21.07;34.40
78223;BME280;67497;53.058;21.618;2023-02-08T18:17:35;103150.38;;;21.19;34.64
78223;BME280;67497;53.058;21.618;2023-02-08T18:19:36;103152.78;;;21.31;34.44
78223;BME280;67497;53.058;21.618;2023-02-08T18:21:37;103153.88;;;21.48;34.13
78223;BME280;67497;53.058;21.618;2023-02-08T18:23:38;103147.78;;;21.62;34.09
78223;BME280;67497;53.058;21.618;2023-02-08T18:25:39;103153.69;;;21.77;33.90
78223;BME280;67497;53.058;21.618;2023-02-08T18:27:40;103156.84;;;21.91;33.62
78223;BME280;67497;53.058;21.618;2023-02-08T18:29:41;103155.09;;;22.08;33.37
78223;BME280;67497;53.058;21.618;2023-02-08T18:31:41;103153.66;;;22.22;33.13
78223;BME280;67497;53.058;21.618;2023-02-08T18:33:42;103164.72;;;22.31;33.20
78223;BME280;67497;53.058;21.618;2023-02-08T18:35:47;103156.97;;;22.43;33.19
78223;BME280;67497;53.058;21.618;2023-02-08T18:37:47;103160.16;;;22.48;33.16
78223;BME280;67497;53.058;21.618;2023-02-08T18:39:49;103164.78;;;22.57;33.12
78223;BME280;67497;53.058;21.618;2023-02-08T18:41:51;103153.75;;;22.55;33.14
78223;BME280;67497;53.058;21.618;2023-02-08T18:43:52;103158.00;;;22.59;33.11
78223;BME280;67497;53.058;21.618;2023-02-08T18:46:02;103167.69;;;22.65;33.08
78223;BME280;67497;53.058;21.618;2023-02-08T18:48:03;103157.91;;;22.69;33.32
78223;BME280;67497;53.058;21.618;2023-02-08T18:50:04;103154.09;;;22.70;33.56
78223;BME280;67497;53.058;21.618;2023-02-08T18:52:07;103155.28;;;22.68;34.11
78223;BME280;67497;53.058;21.618;2023-02-08T18:54:08;103163.25;;;22.62;35.31
78223;BME280;67497;53.058;21.618;2023-02-08T18:56:10;103167.69;;;22.65;34.58
78223;BME280;67497;53.058;21.618;2023-02-08T18:58:11;103158.56;;;22.63;34.16
78223;BME280;67497;53.058;21.618;2023-02-08T19:00:12;103159.59;;;22.62;34.16
78223;BME280;67497;53.058;21.618;2023-02-08T19:02:17;103163.13;;;22.64;35.40
78223;BME280;67497;53.058;21.618;2023-02-08T19:04:18;103155.03;;;22.61;35.75
78223;BME280;67497;53.058;21.618;2023-02-08T19:06:24;103165.72;;;22.66;35.36
78223;BME280;67497;53.058;21.618;2023-02-08T19:08:25;103161.50;;;22.61;35.68
78223;BME280;67497;53.058;21.618;2023-02-08T19:10:26;103152.97;;;22.63;35.35
78223;BME280;67497;53.058;21.618;2023-02-08T19:12:26;103153.69;;;22.65;34.96
78223;BME280;67497;53.058;21.618;2023-02-08T19:14:27;103145.47;;;22.63;35.07
78223;BME280;67497;53.058;21.618;2023-02-08T19:16:33;103145.00;;;22.68;34.89
78223;BME280;67497;53.058;21.618;2023-02-08T19:18:33;103143.56;;;22.64;34.58
78223;BME280;67497;53.058;21.618;2023-02-08T19:20:35;103132.94;;;22.68;34.52
78223;BME280;67497;53.058;21.618;2023-02-08T19:22:36;103144.31;;;22.74;33.77
78223;BME280;67497;53.058;21.618;2023-02-08T19:24:37;103127.53;;;22.74;33.70
78223;BME280;67497;53.058;21.618;2023-02-08T19:26:38;103128.09;;;22.78;33.82
78223;BME280;67497;53.058;21.618;2023-02-08T19:28:39;103124.03;;;22.72;34.04
78223;BME280;67497;53.058;21.618;2023-02-08T19:30:40;103119.66;;;22.70;34.08
78223;BME280;67497;53.058;21.618;2023-02-08T19:32:40;103130.28;;;22.66;33.92
78223;BME280;67497;53.058;21.618;2023-02-08T19:34:41;103130.84;;;22.70;33.77
78223;BME280;67497;53.058;21.618;2023-02-08T19:36:44;103130.28;;;22.66;33.69
78223;BME280;67497;53.058;21.618;2023-02-08T19:38:46;103131.72;;;22.70;33.89
78223;BME280;67497;53.058;21.618;2023-02-08T19:40:53;103123.66;;;22.67;33.62
78223;BME280;67497;53.058;21.618;2023-02-08T19:42:54;103114.25;;;22.68;33.53
78223;BME280;67497;53.058;21.618;2023-02-08T19:44:55;103117.91;;;22.69;33.47
78223;BME280;67497;53.058;21.618;2023-02-08T19:46:55;103118.78;;;22.69;33.54
78223;BME280;67497;53.058;21.618;2023-02-08T19:48:56;103120.53;;;22.70;33.47
78223;BME280;67497;53.058;21.618;2023-02-08T19:50:59;103119.66;;;22.70;33.30
78223;BME280;67497;53.058;21.618;2023-02-08T19:53:00;103119.66;;;22.70;33.26
78223;BME280;67497;53.058;21.618;2023-02-08T19:55:01;103123.81;;;22.66;33.35
78223;BME280;67497;53.058;21.618;2023-02-08T19:57:01;103117.44;;;22.73;33.34
78223;BME280;67497;53.058;21.618;2023-02-08T19:59:03;103121.81;;;22.76;33.25
78223;BME280;67497;53.058;21.618;2023-02-08T20:01:06;103114.97;;;22.70;33.54
78223;BME280;67497;53.058;21.618;2023-02-08T20:03:07;103117.94;;;22.77;33.09
78223;BME280;67497;53.058;21.618;2023-02-08T20:05:07;103118.69;;;22.79;33.07
78223;BME280;67497;53.058;21.618;2023-02-08T20:07:08;103114.63;;;22.73;33.03
78223;BME280;67497;53.058;21.618;2023-02-08T20:09:09;103116.03;;;22.77;32.93
78223;BME280;67497;53.058;21.618;2023-02-08T20:11:19;103116.75;;;22.79;32.88
78223;BME280;67497;53.058;21.618;2023-02-08T20:13:20;103120.09;;;22.83;32.88
78223;BME280;67497;53.058;21.618;2023-02-08T20:15:21;103114.50;;;22.83;32.75
78223;BME280;67497;53.058;21.618;2023-02-08T20:17:21;103114.34;;;22.84;32.68
78223;BME280;67497;53.058;21.618;2023-02-08T20:19:22;103110.34;;;22.87;32.58
78223;BME280;67497;53.058;21.618;2023-02-08T20:21:23;103118.22;;;22.91;32.71
78223;BME280;67497;53.058;21.618;2023-02-08T20:23:23;103095.84;;;22.91;32.63
78223;BME280;67497;53.058;21.618;2023-02-08T20:25:24;103108.44;;;22.95;32.50
78223;BME280;67497;53.058;21.618;2023-02-08T20:27:26;103107.75;;;22.93;32.53
78223;BME280;67497;53.058;21.618;2023-02-08T20:29:31;103102.00;;;22.95;32.54